createdAt,value
2018-09-17T00:00:44.206Z,10.83
2018-09-17T00:01:44.185Z,10.92
2018-09-17T00:02:44.187Z,10.95
2018-09-17T00:03:44.170Z,10.95
2018-09-17T00:04:44.131Z,10.89
2018-09-17T00:05:44.138Z,10.89
2018-09-17T00:06:44.093Z,10.76
2018-09-17T00:07:44.093Z,10.71
2018-09-17T00:08:44.046Z,10.66
2018-09-17T00:09:44.038Z,10.66
2018-09-17T00:10:44.004Z,10.62
2018-09-17T00:11:43.984Z,10.63
2018-09-17T00:12:43.965Z,10.66
2018-09-17T00:13:43.965Z,10.70
2018-09-17T00:14:43.962Z,10.78
2018-09-17T00:15:43.904Z,10.84
2018-09-17T00:16:43.908Z,10.88
2018-09-17T00:17:43.892Z,10.98
2018-09-17T00:18:43.851Z,11.02
2018-09-17T00:19:43.832Z,11.02
2018-09-17T00:20:43.813Z,10.98
2018-09-17T00:21:43.803Z,10.94
2018-09-17T00:22:43.768Z,10.94
2018-09-17T00:23:43.749Z,10.84
2018-09-17T00:24:43.724Z,10.86
2018-09-17T00:25:43.714Z,10.78
2018-09-17T00:26:43.694Z,10.78
2018-09-17T00:27:43.704Z,10.84
2018-09-17T00:28:43.688Z,10.95
2018-09-17T00:29:43.628Z,10.95
2018-09-17T00:30:43.644Z,11.03
2018-09-17T00:31:43.587Z,11.09
2018-09-17T00:32:43.567Z,10.95
2018-09-17T00:33:43.554Z,10.94
2018-09-17T00:34:43.558Z,10.84
2018-09-17T00:35:43.507Z,10.78
2018-09-17T00:36:43.527Z,10.70
2018-09-17T00:37:43.491Z,10.70
2018-09-17T00:38:43.454Z,10.60
2018-09-17T00:39:43.427Z,10.56
2018-09-17T00:40:43.419Z,10.53
2018-09-17T00:41:43.397Z,10.58
2018-09-17T00:42:43.381Z,10.53
2018-09-17T00:43:43.348Z,10.55
2018-09-17T00:44:43.336Z,10.47
2018-09-17T00:45:43.341Z,10.55
2018-09-17T00:46:43.297Z,10.65
2018-09-17T00:47:43.267Z,10.80
2018-09-17T00:48:43.254Z,10.91
2018-09-17T00:49:43.244Z,10.96
2018-09-17T00:50:43.219Z,11.03
2018-09-17T00:51:43.196Z,10.95
2018-09-17T00:52:43.175Z,10.83
2018-09-17T00:53:43.161Z,10.80
2018-09-17T00:54:43.161Z,10.77
2018-09-17T00:55:43.120Z,10.80
2018-09-17T00:56:43.097Z,10.83
2018-09-17T00:57:43.104Z,10.80
2018-09-17T00:58:43.081Z,10.86
2018-09-17T00:59:43.101Z,10.77
2018-09-17T01:00:43.024Z,10.66
2018-09-17T01:01:43.209Z,10.62
2018-09-17T01:02:42.994Z,10.56
2018-09-17T01:03:43.030Z,10.63
2018-09-17T01:04:42.933Z,10.70
2018-09-17T01:05:42.910Z,10.71
2018-09-17T01:06:42.923Z,10.81
2018-09-17T01:07:42.952Z,10.83
2018-09-17T01:08:42.849Z,10.80
2018-09-17T01:09:42.897Z,10.81
2018-09-17T01:10:42.816Z,10.83
2018-09-17T01:11:42.794Z,10.65
2018-09-17T01:12:42.772Z,10.70
2018-09-17T01:13:42.758Z,10.60
2018-09-17T01:14:42.731Z,10.60
2018-09-17T01:15:42.737Z,10.76
2018-09-17T01:16:42.699Z,10.71
2018-09-17T01:17:42.705Z,10.77
2018-09-17T01:18:42.654Z,10.76
2018-09-17T01:19:42.657Z,10.78
2018-09-17T01:20:42.612Z,10.62
2018-09-17T01:21:42.599Z,10.71
2018-09-17T01:22:42.590Z,10.58
2018-09-17T01:23:42.554Z,10.63
2018-09-17T01:24:42.580Z,10.56
2018-09-17T01:25:42.516Z,10.59
2018-09-17T01:26:42.509Z,10.52
2018-09-17T01:27:42.472Z,10.56
2018-09-17T01:28:42.472Z,10.60
2018-09-17T01:29:42.445Z,10.66
2018-09-17T01:30:42.407Z,10.62
2018-09-17T01:31:42.391Z,10.76
2018-09-17T01:32:42.406Z,10.81
2018-09-17T01:33:42.359Z,10.81
2018-09-17T01:34:42.337Z,10.76
2018-09-17T01:35:42.317Z,10.77
2018-09-17T01:36:42.292Z,10.76
2018-09-17T01:37:42.273Z,10.81
2018-09-17T01:38:42.279Z,10.76
2018-09-17T01:39:42.296Z,10.77
2018-09-17T01:40:42.232Z,10.86
2018-09-17T01:41:42.200Z,10.94
2018-09-17T01:42:42.260Z,11.06
2018-09-17T01:43:42.484Z,11.03
2018-09-17T01:44:42.127Z,10.98
2018-09-17T01:45:42.114Z,10.83
2018-09-17T01:46:42.130Z,10.77
2018-09-17T01:47:42.072Z,10.70
2018-09-17T01:48:42.054Z,10.66
2018-09-17T01:49:42.029Z,10.55
2018-09-17T01:50:42.014Z,10.55
2018-09-17T01:51:41.990Z,10.53
2018-09-17T01:52:41.974Z,10.52
2018-09-17T01:53:41.952Z,10.58
2018-09-17T01:54:41.933Z,10.53
2018-09-17T01:55:41.913Z,10.55
2018-09-17T01:56:41.891Z,10.44
2018-09-17T01:57:41.875Z,10.53
2018-09-17T01:58:41.859Z,10.55
2018-09-17T01:59:41.839Z,10.46
2018-09-17T02:00:41.814Z,10.47
2018-09-17T02:01:41.795Z,10.53
2018-09-17T02:02:41.779Z,10.52
2018-09-17T02:03:41.853Z,10.51
2018-09-17T02:04:41.733Z,10.39
2018-09-17T02:05:41.712Z,10.34
2018-09-17T02:06:41.690Z,10.19
2018-09-17T02:07:41.712Z,10.24
2018-09-17T02:08:41.662Z,10.15
2018-09-17T02:09:41.700Z,10.10
2018-09-17T02:10:41.610Z,10.14
2018-09-17T02:11:41.588Z,10.07
2018-09-17T02:12:41.569Z,10.00
2018-09-17T02:13:41.548Z,10.00
2018-09-17T02:14:41.576Z,10.00
2018-09-17T02:15:41.539Z,9.97
2018-09-17T02:16:41.514Z,10.07
2018-09-17T02:17:41.468Z,10.18
2018-09-17T02:18:41.448Z,10.17
2018-09-17T02:19:41.429Z,10.17
2018-09-17T02:20:41.423Z,10.12
2018-09-17T02:21:41.388Z,10.17
2018-09-17T02:22:41.368Z,10.18
2018-09-17T02:23:41.367Z,10.07
2018-09-17T02:24:41.330Z,10.04
2018-09-17T02:25:41.307Z,10.03
2018-09-17T02:26:41.309Z,9.94
2018-09-17T02:27:41.282Z,9.85
2018-09-17T02:28:41.243Z,9.93
2018-09-17T02:29:41.219Z,9.78
2018-09-17T02:30:41.229Z,9.76
2018-09-17T02:31:41.194Z,9.83
2018-09-17T02:32:41.161Z,9.81
2018-09-17T02:33:41.164Z,9.83
2018-09-17T02:34:41.123Z,9.81
2018-09-17T02:35:41.120Z,9.76
2018-09-17T02:36:41.083Z,9.73
2018-09-17T02:37:41.068Z,9.60
2018-09-17T02:38:41.039Z,9.71
2018-09-17T02:39:41.026Z,9.60
2018-09-17T02:40:41.017Z,9.61
2018-09-17T02:41:40.978Z,9.49
2018-09-17T02:42:40.952Z,9.49
2018-09-17T02:43:41.048Z,9.63
2018-09-17T02:44:40.914Z,9.61
2018-09-17T02:45:40.921Z,9.60
2018-09-17T02:46:40.889Z,9.52
2018-09-17T02:47:40.859Z,9.48
2018-09-17T02:48:40.836Z,9.49
2018-09-17T02:49:40.841Z,9.56
2018-09-17T02:50:40.834Z,9.64
2018-09-17T02:51:40.781Z,9.64
2018-09-17T02:52:40.806Z,9.61
2018-09-17T02:53:40.821Z,9.66
2018-09-17T02:54:40.713Z,9.60
2018-09-17T02:55:40.692Z,9.58
2018-09-17T02:56:40.673Z,9.45
2018-09-17T02:57:40.764Z,9.40
2018-09-17T02:58:40.636Z,9.45
2018-09-17T02:59:40.613Z,9.35
2018-09-17T03:00:40.600Z,9.40
2018-09-17T03:01:40.562Z,9.32
2018-09-17T03:02:40.553Z,9.27
2018-09-17T03:03:40.533Z,9.28
2018-09-17T03:04:40.514Z,9.30
2018-09-17T03:05:40.490Z,9.24
2018-09-17T03:06:40.466Z,9.24
2018-09-17T03:07:40.449Z,9.25
2018-09-17T03:08:40.423Z,9.23
2018-09-17T03:09:40.404Z,9.15
2018-09-17T03:10:40.379Z,9.15
2018-09-17T03:11:40.376Z,9.15
2018-09-17T03:12:40.374Z,9.20
2018-09-17T03:13:40.322Z,9.16
2018-09-17T03:14:40.293Z,9.20
2018-09-17T03:15:40.280Z,9.15
2018-09-17T03:16:40.263Z,9.20
2018-09-17T03:17:40.241Z,9.13
2018-09-17T03:18:40.216Z,9.20
2018-09-17T03:19:40.197Z,9.20
2018-09-17T03:20:40.174Z,9.13
2018-09-17T03:21:40.161Z,9.13
2018-09-17T03:22:40.155Z,9.20
2018-09-17T03:23:40.119Z,9.16
2018-09-17T03:24:40.234Z,9.09
2018-09-17T03:25:40.071Z,9.09
2018-09-17T03:26:40.053Z,9.10
2018-09-17T03:27:40.046Z,9.04
2018-09-17T03:28:40.011Z,9.06
2018-09-17T03:29:39.991Z,9.13
2018-09-17T03:30:39.970Z,9.21
2018-09-17T03:31:39.956Z,9.18
2018-09-17T03:32:39.937Z,9.16
2018-09-17T03:33:39.941Z,9.16
2018-09-17T03:34:39.894Z,9.16
2018-09-17T03:35:39.887Z,9.12
2018-09-17T03:36:39.843Z,9.10
2018-09-17T03:37:39.846Z,9.06
2018-09-17T03:38:39.836Z,8.94
2018-09-17T03:39:39.779Z,8.94
2018-09-17T03:40:39.763Z,8.99
2018-09-17T03:41:39.744Z,8.90
2018-09-17T03:42:39.718Z,8.93
2018-09-17T03:43:39.702Z,9.01
2018-09-17T03:44:39.670Z,9.06
2018-09-17T03:45:39.679Z,9.12
2018-09-17T03:46:39.724Z,9.10
2018-09-17T03:47:39.629Z,9.20
2018-09-17T03:48:39.610Z,9.21
2018-09-17T03:49:39.597Z,9.32
2018-09-17T03:50:39.546Z,9.27
2018-09-17T03:51:39.538Z,9.24
2018-09-17T03:52:39.524Z,9.27
2018-09-17T03:53:39.533Z,9.18
2018-09-17T03:54:39.473Z,9.16
2018-09-17T03:55:39.482Z,9.12
2018-09-17T03:56:39.460Z,9.16
2018-09-17T03:57:39.431Z,9.10
2018-09-17T03:58:39.402Z,9.10
2018-09-17T03:59:39.383Z,9.15
2018-09-17T04:00:39.374Z,9.23
2018-09-17T04:01:39.348Z,9.16
2018-09-17T04:02:39.300Z,9.23
2018-09-17T04:03:39.304Z,9.21
2018-09-17T04:04:39.300Z,9.25
2018-09-17T04:05:39.234Z,9.27
2018-09-17T04:06:39.217Z,9.24
2018-09-17T04:07:39.195Z,9.23
2018-09-17T04:08:39.185Z,9.28
2018-09-17T04:09:39.157Z,9.35
2018-09-17T04:10:39.163Z,9.35
2018-09-17T04:11:39.122Z,9.32
2018-09-17T04:12:39.087Z,9.38
2018-09-17T04:13:39.074Z,9.49
2018-09-17T04:14:39.080Z,9.40
2018-09-17T04:15:39.053Z,9.48
2018-09-17T04:16:39.010Z,9.49
2018-09-17T04:17:38.988Z,9.46
2018-09-17T04:18:38.991Z,9.42
2018-09-17T04:19:38.953Z,9.43
2018-09-17T04:20:38.945Z,9.40
2018-09-17T04:21:38.933Z,9.39
2018-09-17T04:22:38.886Z,9.42
2018-09-17T04:23:38.864Z,9.38
2018-09-17T04:24:38.839Z,9.39
2018-09-17T04:25:38.864Z,9.35
2018-09-17T04:26:38.804Z,9.45
2018-09-17T04:27:38.790Z,9.52
2018-09-17T04:28:38.797Z,9.49
2018-09-17T04:29:38.749Z,9.49
2018-09-17T04:30:38.710Z,9.49
2018-09-17T04:31:38.736Z,9.67
2018-09-17T04:32:38.688Z,9.68
2018-09-17T04:33:38.685Z,9.75
2018-09-17T04:34:38.655Z,9.81
2018-09-17T04:35:38.617Z,9.75
2018-09-17T04:36:38.613Z,9.81
2018-09-17T04:37:38.575Z,9.82
2018-09-17T04:38:38.559Z,9.81
2018-09-17T04:39:38.547Z,9.78
2018-09-17T04:40:38.514Z,9.78
2018-09-17T04:41:38.492Z,9.79
2018-09-17T04:42:38.461Z,9.89
2018-09-17T04:43:38.461Z,9.83
2018-09-17T04:44:38.442Z,9.97
2018-09-17T04:45:38.404Z,9.86
2018-09-17T04:46:38.387Z,9.94
2018-09-17T04:47:38.393Z,10.00
2018-09-17T04:48:38.357Z,9.97
2018-09-17T04:49:38.352Z,9.83
2018-09-17T04:50:38.312Z,9.88
2018-09-17T04:51:38.289Z,9.89
2018-09-17T04:52:38.262Z,9.88
2018-09-17T04:53:38.236Z,9.79
2018-09-17T04:54:38.230Z,9.75
2018-09-17T04:55:38.208Z,9.60
2018-09-17T04:56:38.179Z,9.57
2018-09-17T04:57:38.161Z,9.68
2018-09-17T04:58:38.141Z,9.70
2018-09-17T04:59:38.147Z,9.81
2018-09-17T05:00:38.146Z,9.82
2018-09-17T05:01:38.075Z,9.88
2018-09-17T05:02:38.047Z,9.91
2018-09-17T05:03:38.034Z,10.03
2018-09-17T05:04:38.041Z,10.00
2018-09-17T05:05:37.986Z,10.07
2018-09-17T05:06:37.975Z,10.14
2018-09-17T05:07:37.948Z,10.10
2018-09-17T05:08:37.938Z,10.17
2018-09-17T05:09:37.903Z,10.12
2018-09-17T05:10:37.884Z,10.09
2018-09-17T05:11:37.865Z,10.04
2018-09-17T05:12:37.842Z,10.06
2018-09-17T05:13:37.823Z,10.04
2018-09-17T05:14:37.813Z,10.06
2018-09-17T05:15:37.791Z,10.01
2018-09-17T05:16:37.765Z,10.01
2018-09-17T05:17:37.749Z,9.99
2018-09-17T05:18:37.720Z,9.96
2018-09-17T05:19:37.734Z,9.89
2018-09-17T05:20:37.767Z,9.85
2018-09-17T05:21:37.662Z,9.76
2018-09-17T05:22:37.634Z,9.78
2018-09-17T05:23:37.621Z,9.78
2018-09-17T05:24:37.595Z,9.64
2018-09-17T05:25:37.573Z,9.70
2018-09-17T05:26:37.609Z,9.60
2018-09-17T05:27:37.534Z,9.64
2018-09-17T05:28:37.522Z,9.66
2018-09-17T05:29:37.499Z,9.70
2018-09-17T05:30:37.480Z,9.61
2018-09-17T05:31:37.453Z,9.57
2018-09-17T05:32:37.440Z,9.53
2018-09-17T05:33:37.424Z,9.48
2018-09-17T05:34:37.392Z,9.45
2018-09-17T05:35:37.414Z,9.43
2018-09-17T05:36:37.354Z,9.39
2018-09-17T05:37:37.329Z,9.38
2018-09-17T05:38:37.306Z,9.39
2018-09-17T05:39:37.296Z,9.32
2018-09-17T05:40:37.269Z,9.42
2018-09-17T05:41:37.249Z,9.40
2018-09-17T05:42:37.237Z,9.32
2018-09-17T05:43:37.237Z,9.42
2018-09-17T05:44:37.182Z,9.35
2018-09-17T05:45:37.179Z,9.35
2018-09-17T05:46:37.148Z,9.39
2018-09-17T05:47:37.167Z,9.40
2018-09-17T05:48:37.115Z,9.39
2018-09-17T05:49:37.081Z,9.40
2018-09-17T05:50:37.061Z,9.32
2018-09-17T05:51:37.050Z,9.38
2018-09-17T05:52:37.026Z,9.32
2018-09-17T05:53:37.018Z,9.35
2018-09-17T05:54:36.978Z,9.40
2018-09-17T05:55:36.965Z,9.38
2018-09-17T05:56:36.945Z,9.39
2018-09-17T05:57:36.927Z,9.52
2018-09-17T05:58:36.901Z,9.48
2018-09-17T05:59:36.925Z,9.60
2018-09-17T06:00:36.885Z,9.61
2018-09-17T06:01:36.872Z,9.64
2018-09-17T06:02:36.818Z,9.78
2018-09-17T06:03:36.796Z,9.76
2018-09-17T06:04:36.774Z,9.73
2018-09-17T06:05:36.792Z,9.82
2018-09-17T06:06:36.739Z,9.89
2018-09-17T06:07:36.717Z,9.89
2018-09-17T06:08:36.725Z,10.00
2018-09-17T06:09:36.679Z,9.96
2018-09-17T06:10:36.656Z,10.01
2018-09-17T06:11:36.635Z,10.07
2018-09-17T06:12:36.628Z,10.10
2018-09-17T06:13:36.596Z,10.21
2018-09-17T06:14:36.631Z,10.25
2018-09-17T06:15:36.547Z,10.33
2018-09-17T06:16:36.558Z,10.21
2018-09-17T06:17:36.513Z,10.33
2018-09-17T06:18:36.484Z,10.53
2018-09-17T06:19:36.468Z,10.56
2018-09-17T06:20:36.455Z,10.76
2018-09-17T06:21:36.449Z,10.89
2018-09-17T06:22:36.426Z,11.01
2018-09-17T06:23:36.419Z,11.09
2018-09-17T06:24:36.375Z,11.17
2018-09-17T06:25:36.350Z,11.20
2018-09-17T06:26:36.334Z,11.21
2018-09-17T06:27:36.314Z,11.31
2018-09-17T06:28:36.340Z,11.29
2018-09-17T06:29:36.296Z,11.34
2018-09-17T06:30:36.256Z,11.41
2018-09-17T06:31:36.224Z,11.38
2018-09-17T06:32:36.215Z,11.49
2018-09-17T06:33:36.195Z,11.59
2018-09-17T06:34:36.214Z,11.78
2018-09-17T06:35:36.166Z,11.89
2018-09-17T06:36:36.134Z,11.97
2018-09-17T06:37:36.176Z,12.05
2018-09-17T06:38:36.100Z,12.12
2018-09-17T06:39:36.092Z,12.20
2018-09-17T06:40:36.059Z,12.27
2018-09-17T06:41:36.070Z,12.29
2018-09-17T06:42:36.038Z,12.27
2018-09-17T06:43:36.012Z,12.31
2018-09-17T06:44:35.995Z,12.29
2018-09-17T06:45:35.963Z,12.23
2018-09-17T06:46:35.945Z,12.31
2018-09-17T06:47:35.918Z,12.27
2018-09-17T06:48:35.915Z,12.30
2018-09-17T06:49:35.892Z,12.42
2018-09-17T06:50:35.891Z,12.38
2018-09-17T06:51:35.877Z,12.45
2018-09-17T06:52:35.825Z,12.52
2018-09-17T06:53:35.831Z,12.56
2018-09-17T06:54:35.786Z,12.66
2018-09-17T06:55:35.777Z,12.70
2018-09-17T06:56:35.779Z,12.81
2018-09-17T06:57:35.772Z,12.92
2018-09-17T06:58:35.747Z,12.82
2018-09-17T06:59:35.720Z,12.99
2018-09-17T07:00:35.696Z,13.04
2018-09-17T07:01:35.664Z,13.09
2018-09-17T07:02:35.642Z,13.18
2018-09-17T07:03:35.627Z,13.24
2018-09-17T07:04:35.604Z,13.25
2018-09-17T07:05:35.616Z,13.40
2018-09-17T07:06:35.565Z,13.47
2018-09-17T07:07:35.551Z,13.58
2018-09-17T07:08:35.536Z,13.76
2018-09-17T07:09:35.536Z,13.95
2018-09-17T07:10:35.504Z,14.01
2018-09-17T07:11:35.504Z,14.16
2018-09-17T07:12:35.457Z,14.28
2018-09-17T07:13:35.452Z,14.37
2018-09-17T07:14:35.427Z,14.46
2018-09-17T07:15:35.404Z,14.52
2018-09-17T07:16:35.401Z,14.60
2018-09-17T07:17:35.379Z,14.71
2018-09-17T07:18:35.358Z,14.83
2018-09-17T07:19:35.339Z,14.91
2018-09-17T07:20:35.318Z,15.12
2018-09-17T07:21:35.303Z,15.26
2018-09-17T07:22:35.283Z,15.33
2018-09-17T07:23:35.270Z,15.43
2018-09-17T07:24:35.271Z,15.60
2018-09-17T07:25:35.238Z,15.56
2018-09-17T07:26:35.216Z,15.81
2018-09-17T07:27:35.229Z,16.04
2018-09-17T07:28:35.184Z,16.20
2018-09-17T07:29:35.171Z,16.40
2018-09-17T07:30:35.154Z,16.75
2018-09-17T07:31:35.133Z,16.83
2018-09-17T07:32:35.114Z,17.00
2018-09-17T07:33:35.104Z,17.13
2018-09-17T07:34:35.107Z,17.32
2018-09-17T07:35:35.070Z,17.46
2018-09-17T07:36:35.079Z,17.48
2018-09-17T07:37:35.070Z,17.76
2018-09-17T07:38:35.026Z,17.91
2018-09-17T07:39:35.031Z,18.28
2018-09-17T07:40:34.991Z,18.55
2018-09-17T07:41:34.978Z,18.72
2018-09-17T07:42:34.983Z,19.10
2018-09-17T07:43:34.961Z,19.43
2018-09-17T07:44:34.936Z,19.65
2018-09-17T07:45:34.926Z,19.98
2018-09-17T07:46:34.910Z,20.35
2018-09-17T07:47:34.894Z,20.59
2018-09-17T07:48:34.913Z,20.86
2018-09-17T07:49:34.864Z,21.05
2018-09-17T07:50:34.859Z,21.08
2018-09-17T07:51:34.843Z,21.36
2018-09-17T07:52:34.834Z,21.44
2018-09-17T07:53:34.815Z,21.72
2018-09-17T07:54:34.802Z,21.95
2018-09-17T07:55:34.799Z,22.10
2018-09-17T07:56:34.780Z,22.35
2018-09-17T07:57:34.789Z,22.49
2018-09-17T07:58:34.776Z,22.75
2018-09-17T07:59:34.741Z,22.83
2018-09-17T08:00:34.732Z,23.23
2018-09-17T08:01:34.722Z,23.35
2018-09-17T08:02:35.270Z,23.42
2018-09-17T08:03:34.706Z,23.90
2018-09-17T08:04:34.696Z,24.31
2018-09-17T08:05:34.716Z,24.61
2018-09-17T08:06:34.666Z,24.77
2018-09-17T08:07:34.646Z,24.97
2018-09-17T08:08:34.642Z,25.09
2018-09-17T08:09:34.639Z,25.31
2018-09-17T08:10:34.623Z,25.32
2018-09-17T08:11:34.610Z,25.46
2018-09-17T08:12:34.626Z,25.62
2018-09-17T08:13:34.614Z,25.74
2018-09-17T08:14:34.607Z,25.90
2018-09-17T08:15:34.595Z,26.08
2018-09-17T08:16:34.567Z,25.94
2018-09-17T08:17:34.578Z,26.02
2018-09-17T08:18:34.569Z,26.21
2018-09-17T08:19:34.564Z,26.73
2018-09-17T08:20:34.524Z,26.89
2018-09-17T08:21:34.521Z,26.87
2018-09-17T08:22:34.530Z,27.11
2018-09-17T08:23:34.495Z,27.04
2018-09-17T08:24:34.534Z,26.86
2018-09-17T08:25:34.568Z,26.79
2018-09-17T08:26:34.477Z,26.61
2018-09-17T08:27:34.463Z,26.62
2018-09-17T08:28:34.453Z,26.43
2018-09-17T08:29:34.441Z,26.43
2018-09-17T08:30:34.435Z,26.54
2018-09-17T08:31:34.428Z,27.28
2018-09-17T08:32:34.416Z,27.73
2018-09-17T08:33:34.409Z,27.89
2018-09-17T08:34:34.395Z,28.22
2018-09-17T08:35:34.415Z,28.13
2018-09-17T08:36:34.381Z,28.31
2018-09-17T08:37:34.374Z,28.58
2018-09-17T08:38:34.365Z,28.62
2018-09-17T08:39:35.293Z,28.54
2018-09-17T08:40:34.348Z,28.73
2018-09-17T08:41:34.358Z,28.93
2018-09-17T08:42:34.332Z,28.69
2018-09-17T08:43:34.327Z,28.73
2018-09-17T08:44:34.317Z,28.85
2018-09-17T08:45:34.367Z,29.06
2018-09-17T08:46:34.354Z,28.82
2018-09-17T08:47:34.291Z,28.72
2018-09-17T08:48:34.292Z,28.87
2018-09-17T08:49:34.281Z,29.00
2018-09-17T08:50:34.270Z,29.20
2018-09-17T08:51:34.260Z,29.53
2018-09-17T08:52:34.253Z,29.90
2018-09-17T08:53:34.266Z,29.74
2018-09-17T08:54:34.250Z,30.00
2018-09-17T08:55:34.247Z,30.14
2018-09-17T08:56:34.229Z,30.18
2018-09-17T08:57:34.244Z,30.23
2018-09-17T08:58:34.247Z,30.11
2018-09-17T08:59:34.241Z,29.87
2018-09-17T09:00:34.219Z,29.70
2018-09-17T09:01:34.205Z,29.74
2018-09-17T09:02:34.191Z,29.56
2018-09-17T09:03:34.180Z,29.40
2018-09-17T09:04:34.170Z,29.06
2018-09-17T09:05:34.178Z,29.22
2018-09-17T09:06:34.154Z,29.29
2018-09-17T09:07:34.164Z,29.35
2018-09-17T09:08:34.145Z,29.62
2018-09-17T09:09:34.187Z,29.56
2018-09-17T09:10:34.144Z,29.82
2018-09-17T09:11:34.126Z,30.21
2018-09-17T09:12:34.122Z,30.08
2018-09-17T09:13:34.127Z,30.36
2018-09-17T09:14:34.135Z,29.94
2018-09-17T09:15:34.126Z,29.75
2018-09-17T09:16:34.152Z,29.93
2018-09-17T09:17:34.088Z,29.86
2018-09-17T09:18:34.077Z,29.62
2018-09-17T09:19:34.085Z,29.31
2018-09-17T09:20:34.069Z,29.29
2018-09-17T09:21:34.088Z,29.16
2018-09-17T09:22:34.069Z,29.11
2018-09-17T09:23:34.050Z,29.35
2018-09-17T09:24:34.037Z,29.60
2018-09-17T09:25:34.071Z,29.57
2018-09-17T09:26:34.031Z,29.62
2018-09-17T09:27:34.018Z,29.62
2018-09-17T09:28:34.024Z,29.87
2018-09-17T09:29:34.012Z,29.63
2018-09-17T09:30:34.027Z,29.44
2018-09-17T09:31:33.992Z,29.25
2018-09-17T09:32:34.014Z,29.60
2018-09-17T09:33:34.008Z,30.09
2018-09-17T09:34:33.980Z,30.11
2018-09-17T09:35:33.976Z,30.26
2018-09-17T09:36:33.986Z,30.19
2018-09-17T09:37:33.952Z,30.16
2018-09-17T09:38:33.973Z,30.15
2018-09-17T09:39:33.941Z,30.07
2018-09-17T09:40:33.961Z,29.96
2018-09-17T09:41:33.960Z,30.00
2018-09-17T09:42:33.922Z,30.43
2018-09-17T09:43:33.918Z,30.46
2018-09-17T09:44:33.922Z,30.40
2018-09-17T09:45:33.915Z,30.47
2018-09-17T09:46:33.899Z,30.53
2018-09-17T09:47:33.893Z,30.36
2018-09-17T09:48:33.887Z,30.33
2018-09-17T09:49:33.877Z,30.36
2018-09-17T09:50:33.877Z,29.82
2018-09-17T09:51:33.881Z,30.00
2018-09-17T09:52:33.937Z,30.24
2018-09-17T09:53:33.850Z,30.36
2018-09-17T09:54:33.847Z,30.16
2018-09-17T09:55:33.840Z,30.19
2018-09-17T09:56:33.837Z,29.81
2018-09-17T09:57:33.831Z,29.84
2018-09-17T09:58:33.826Z,30.07
2018-09-17T09:59:33.907Z,30.33
2018-09-17T10:00:33.816Z,30.21
2018-09-17T10:01:33.816Z,30.36
2018-09-17T10:02:33.800Z,30.18
2018-09-17T10:03:33.814Z,30.30
2018-09-17T10:04:33.795Z,30.29
2018-09-17T10:05:33.777Z,30.34
2018-09-17T10:06:33.777Z,30.37
2018-09-17T10:07:33.774Z,30.47
2018-09-17T10:08:33.767Z,30.23
2018-09-17T10:09:33.761Z,30.36
2018-09-17T10:10:33.755Z,30.46
2018-09-17T10:11:33.759Z,30.33
2018-09-17T10:12:33.742Z,30.56
2018-09-17T10:13:33.738Z,30.93
2018-09-17T10:14:33.726Z,30.90
2018-09-17T10:15:33.726Z,30.80
2018-09-17T10:16:33.725Z,30.65
2018-09-17T10:17:33.728Z,30.93
2018-09-17T10:18:33.713Z,31.05
2018-09-17T10:19:33.713Z,30.93
2018-09-17T10:20:33.716Z,30.80
2018-09-17T10:21:33.825Z,30.84
2018-09-17T10:22:33.693Z,30.93
2018-09-17T10:23:33.697Z,31.05
2018-09-17T10:24:33.687Z,31.05
2018-09-17T10:25:33.710Z,30.84
2018-09-17T10:26:33.680Z,30.31
2018-09-17T10:27:33.680Z,30.61
2018-09-17T10:28:33.666Z,30.62
2018-09-17T10:29:33.666Z,30.50
2018-09-17T10:30:33.666Z,30.43
2018-09-17T10:31:33.700Z,30.00
2018-09-17T10:32:33.656Z,30.24
2018-09-17T10:33:33.659Z,30.50
2018-09-17T10:34:33.653Z,30.62
2018-09-17T10:35:33.657Z,30.68
2018-09-17T10:36:33.668Z,30.38
2018-09-17T10:37:33.634Z,30.59
2018-09-17T10:38:33.635Z,30.65
2018-09-17T10:39:33.671Z,30.83
2018-09-17T10:40:33.628Z,31.21
2018-09-17T10:41:33.621Z,31.48
2018-09-17T10:42:33.616Z,31.17
2018-09-17T10:43:33.650Z,31.21
2018-09-17T10:44:33.622Z,31.09
2018-09-17T10:45:33.615Z,31.18
2018-09-17T10:46:33.606Z,30.78
2018-09-17T10:47:33.606Z,30.69
2018-09-17T10:48:33.609Z,30.21
2018-09-17T10:49:33.599Z,30.11
2018-09-17T10:50:33.600Z,30.34
2018-09-17T10:51:33.596Z,29.99
2018-09-17T10:52:33.612Z,30.30
2018-09-17T10:53:33.596Z,30.61
2018-09-17T10:54:33.592Z,30.90
2018-09-17T10:55:33.583Z,31.13
2018-09-17T10:56:33.589Z,31.38
2018-09-17T10:57:33.590Z,31.49
2018-09-17T10:58:33.580Z,31.58
2018-09-17T10:59:33.580Z,31.15
2018-09-17T11:00:33.581Z,30.84
2018-09-17T11:01:33.568Z,30.54
2018-09-17T11:02:33.574Z,30.64
2018-09-17T11:03:33.567Z,30.46
2018-09-17T11:04:33.573Z,30.38
2018-09-17T11:05:33.574Z,30.59
2018-09-17T11:06:33.570Z,30.46
2018-09-17T11:07:33.564Z,30.38
2018-09-17T11:08:33.571Z,30.87
2018-09-17T11:09:33.563Z,30.83
2018-09-17T11:10:33.567Z,30.83
2018-09-17T11:11:33.561Z,30.74
2018-09-17T11:12:33.560Z,30.62
2018-09-17T11:13:33.558Z,30.53
2018-09-17T11:14:33.561Z,30.74
2018-09-17T11:15:33.558Z,30.81
2018-09-17T11:16:33.564Z,30.19
2018-09-17T11:17:33.595Z,30.09
2018-09-17T11:18:33.567Z,30.03
2018-09-17T11:19:33.554Z,30.23
2018-09-17T11:20:33.558Z,30.49
2018-09-17T11:21:33.561Z,30.50
2018-09-17T11:22:33.560Z,30.19
2018-09-17T11:23:33.558Z,30.19
2018-09-17T11:24:33.551Z,30.00
2018-09-17T11:25:33.558Z,29.93
2018-09-17T11:26:33.552Z,29.57
2018-09-17T11:27:33.548Z,29.47
2018-09-17T11:28:33.552Z,29.47
2018-09-17T11:29:33.552Z,29.47
2018-09-17T11:30:33.555Z,29.50
2018-09-17T11:31:33.608Z,29.79
2018-09-17T11:32:33.548Z,29.93
2018-09-17T11:33:33.555Z,29.90
2018-09-17T11:34:33.548Z,29.87
2018-09-17T11:35:33.545Z,29.82
2018-09-17T11:36:33.545Z,29.50
2018-09-17T11:37:33.545Z,29.44
2018-09-17T11:38:33.541Z,29.57
2018-09-17T11:39:33.549Z,29.65
2018-09-17T11:40:33.542Z,29.90
2018-09-17T11:41:33.545Z,30.00
2018-09-17T11:42:33.545Z,29.96
2018-09-17T11:43:33.538Z,30.12
2018-09-17T11:44:33.538Z,30.12
2018-09-17T11:45:33.539Z,30.09
2018-09-17T11:46:33.542Z,30.02
2018-09-17T11:47:33.545Z,29.93
2018-09-17T11:48:33.539Z,29.92
2018-09-17T11:49:33.545Z,30.03
2018-09-17T11:50:33.540Z,30.19
2018-09-17T11:51:33.536Z,30.23
2018-09-17T11:52:33.536Z,30.26
2018-09-17T11:53:33.670Z,30.37
2018-09-17T11:54:33.536Z,30.43
2018-09-17T11:55:33.539Z,30.11
2018-09-17T11:56:33.536Z,29.89
2018-09-17T11:57:33.542Z,29.77
2018-09-17T11:58:33.535Z,29.99
2018-09-17T11:59:33.539Z,30.26
2018-09-17T12:00:33.533Z,30.19
2018-09-17T12:01:33.536Z,30.23
2018-09-17T12:02:33.536Z,30.14
2018-09-17T12:03:33.542Z,30.23
2018-09-17T12:04:33.539Z,30.29
2018-09-17T12:05:33.546Z,30.40
2018-09-17T12:06:33.539Z,30.47
2018-09-17T12:07:33.542Z,30.57
2018-09-17T12:08:33.552Z,30.36
2018-09-17T12:09:33.542Z,30.19
2018-09-17T12:10:33.539Z,30.26
2018-09-17T12:11:33.561Z,30.14
2018-09-17T12:12:33.542Z,30.15
2018-09-17T12:13:33.548Z,30.26
2018-09-17T12:14:33.548Z,30.38
2018-09-17T12:15:33.545Z,30.50
2018-09-17T12:16:33.548Z,30.24
2018-09-17T12:17:33.545Z,29.89
2018-09-17T12:18:33.550Z,29.78
2018-09-17T12:19:33.551Z,30.05
2018-09-17T12:20:33.548Z,30.38
2018-09-17T12:21:33.555Z,30.64
2018-09-17T12:22:33.549Z,30.53
2018-09-17T12:23:33.549Z,30.19
2018-09-17T12:24:33.559Z,30.29
2018-09-17T12:25:33.552Z,30.34
2018-09-17T12:26:33.555Z,30.61
2018-09-17T12:27:33.558Z,30.08
2018-09-17T12:28:33.562Z,30.18
2018-09-17T12:29:33.562Z,30.27
2018-09-17T12:30:33.607Z,30.53
2018-09-17T12:31:33.565Z,30.87
2018-09-17T12:32:33.562Z,30.68
2018-09-17T12:33:33.637Z,30.71
2018-09-17T12:34:33.565Z,30.65
2018-09-17T12:35:33.568Z,30.23
2018-09-17T12:36:33.569Z,30.05
2018-09-17T12:37:33.568Z,29.84
2018-09-17T12:38:33.568Z,29.93
2018-09-17T12:39:33.574Z,30.26
2018-09-17T12:40:33.574Z,30.54
2018-09-17T12:41:33.575Z,30.33
2018-09-17T12:42:33.575Z,30.45
2018-09-17T12:43:33.576Z,30.64
2018-09-17T12:44:33.581Z,30.47
2018-09-17T12:45:33.584Z,30.69
2018-09-17T12:46:33.584Z,30.64
2018-09-17T12:47:33.594Z,30.78
2018-09-17T12:48:33.587Z,30.86
2018-09-17T12:49:33.600Z,30.89
2018-09-17T12:50:33.587Z,30.00
2018-09-17T12:51:33.593Z,30.05
2018-09-17T12:52:33.588Z,30.36
2018-09-17T12:53:33.596Z,30.71
2018-09-17T12:54:33.591Z,31.04
2018-09-17T12:55:33.590Z,31.18
2018-09-17T12:56:33.594Z,31.50
2018-09-17T12:57:33.594Z,31.58
2018-09-17T12:58:33.617Z,31.84
2018-09-17T12:59:33.597Z,31.99